Data for 12/07/2006

Time Sea-Level Adjusted Pressure Absolute Pressure Temperature Relative Humidity Dew Point   
(mb) (inHg) (mb) (inHg) (C) (F) (%) (C) (F)
00:05 1028 30.36 857 25.31 0.8 33.4 85 -1.4 29.4
00:10 1028 30.36 857 25.31 0.8 33.4 85 -1.4 29.5
00:15 1028 30.36 857 25.31 0.5 32.8 87 -1.5 29.3
00:20 1028 30.36 857 25.31 0.5 32.9 87 -1.4 29.5
00:25 1028 30.36 857 25.31 0.9 33.5 86 -1.3 29.7
00:30 1028 30.36 857 25.31 0.5 32.9 87 -1.5 29.3
00:35 1028 30.36 857 25.31 0.2 32.4 88 -1.5 29.3
00:40 1028 30.36 857 25.31 0.4 32.6 87 -1.6 29.1
00:45 1028 30.36 857 25.31 0.4 32.7 87 -1.5 29.3
00:50 1028 30.36 857 25.31 0.8 33.4 85 -1.5 29.3
00:55 1028 30.36 857 25.31 0.9 33.5 85 -1.4 29.5
01:00 1028 30.36 857 25.31 0.7 33.2 85 -1.7 29
01:05 1028 30.36 857 25.31 0.6 33 84 -1.8 28.8
01:10 1028 30.36 857 25.31 0.7 33.2 83 -1.9 28.6
01:15 1028 30.36 857 25.31 0.9 33.6 82 -1.9 28.6
01:20 1028 30.36 857 25.31 0.8 33.4 82 -2 28.5
01:25 1028 30.36 857 25.31 0.2 32.4 85 -1.9 28.5
01:30 1028 30.36 857 25.31 -0 32 84 -2.3 27.8
01:35 1028 30.36 857 25.31 0.1 32.1 83 -2.5 27.6
01:40 1028 30.36 857 25.31 0.1 32.1 83 -2.5 27.5
01:45 1028 30.36 857 25.31 -0 32 82 -2.7 27.2
01:50 1028 30.36 857 25.31 -0.1 31.8 83 -2.7 27.2
01:55 1028 30.36 857 25.31 -0.2 31.7 82 -2.9 26.9
02:00 1028 30.36 857 25.31 -0.4 31.2 83 -2.9 26.7
02:05 1028 30.36 857 25.31 -0.5 31.1 83 -3.1 26.5
02:10 1028 30.36 857 25.31 -0.5 31.2 83 -3.1 26.5
02:15 1028 30.36 857 25.31 -0.3 31.4 82 -3.1 26.5
02:20 1028 30.36 857 25.31 -0.3 31.5 81 -3.1 26.4
02:25 1028 30.36 857 25.31 -0.4 31.3 82 -3 26.5
02:30 1028 30.36 857 25.31 -0.6 31 83 -3 26.6
02:35 1028 30.36 857 25.31 -0.6 31 83 -3.2 26.3
02:40 1028 30.36 857 25.31 -0.7 30.8 83 -3.2 26.3
02:45 1028 30.36 857 25.31 -0.8 30.6 84 -3.2 26.3
02:50 1028 30.36 857 25.31 -0.6 30.9 83 -3.1 26.5
02:55 1028 30.36 857 25.31 -0.5 31.1 83 -3 26.6
03:00 1028 30.36 857 25.31 -0.4 31.2 82 -3.1 26.5
03:05 1028 30.36 857 25.31 -0.5 31.1 82 -3.1 26.4
03:10 1028 30.36 857 25.31 -0.3 31.5 81 -3.1 26.4
03:15 1028 30.36 858 25.34 -0.1 31.7 81 -3.1 26.4
03:20 1028 30.36 858 25.34 -0.5 31.2 82 -3.2 26.2
03:25 1028 30.36 858 25.34 -0.7 30.8 82 -3.3 26
03:30 1028 30.36 858 25.34 -0.9 30.4 83 -3.4 25.8
03:35 1028 30.36 858 25.34 -1.1 30 84 -3.5 25.7
03:40 1028 30.36 858 25.34 -1.2 29.8 85 -3.5 25.7
03:45 1028 30.36 858 25.34 -1.4 29.5 85 -3.6 25.5
03:50 1028 30.36 858 25.34 -1.5 29.4 86 -3.5 25.6
03:55 1028 30.36 858 25.34 -1.4 29.4 86 -3.4 25.8
04:00 1028 30.36 858 25.34 -1.4 29.5 85 -3.6 25.5
04:05 1028 30.36 858 25.34 -1.5 29.4 85 -3.6 25.5
04:10 1028 30.36 858 25.34 -1.5 29.3 86 -3.6 25.5
04:15 1028 30.36 858 25.34 -1.3 29.6 84 -3.6 25.5
04:20 1028 30.36 858 25.34 -1.3 29.7 84 -3.6 25.4
04:25 1028 30.36 858 25.34 -1.5 29.3 85 -3.8 25.2
04:30 1028 30.36 857 25.31 -1.7 29 85 -3.9 24.9
04:35 1028 30.36 857 25.31 -1.9 28.6 86 -4 24.8
04:40 1028 30.36 858 25.34 -2 28.5 87 -3.8 25.1
04:45 1028 30.36 858 25.34 -2 28.4 87 -3.9 25
04:50 1028 30.36 858 25.34 -2.3 27.9 88 -4 24.7
04:55 1028 30.36 858 25.34 -2.6 27.3 88 -4.3 24.3
05:00 1028 30.36 858 25.34 -2.6 27.4 91 -3.8 25.1
05:05 1028 30.36 858 25.34 -2.2 28 89 -3.8 25.1
05:10 1028 30.36 858 25.34 -2.2 28.1 89 -3.7 25.3
05:15 1028 30.36 858 25.34 -1.9 28.7 89 -3.5 25.7
05:20 1028 30.36 858 25.34 -1.7 29 88 -3.4 25.8
05:25 1028 30.36 858 25.34 -1.7 29 89 -3.3 26
05:30 1028 30.36 858 25.34 -1.5 29.3 88 -3.3 26
05:35 1028 30.36 858 25.34 -1.7 29 88 -3.3 26
05:40 1028 30.36 858 25.34 -1.4 29.4 87 -3.3 26
05:45 1028 30.36 858 25.34 -1.6 29.1 87 -3.5 25.6
05:50 1028 30.36 858 25.34 -2.3 27.8 87 -4.2 24.5
05:55 1028 30.36 858 25.34 -2.8 26.9 91 -4.1 24.6
06:00 1028 30.36 858 25.34 -2.8 26.9 90 -4.3 24.2
06:05 1028 30.36 858 25.34 -2.7 27.1 91 -4 24.8
06:10 1028 30.36 858 25.34 -2.4 27.7 90 -3.9 25.1
06:15 1028 30.36 858 25.34 -2.1 28.3 88 -3.8 25.2
06:20 1028 30.36 858 25.34 -2 28.4 88 -3.8 25.2
06:25 1028 30.36 858 25.34 -2.1 28.3 88 -3.8 25.2
06:30 1028 30.36 858 25.34 -2.1 28.2 87 -4 24.8
06:35 1028 30.36 858 25.34 -2.5 27.6 88 -4.2 24.4
06:40 1028 30.36 858 25.34 -2.7 27.1 89 -4.3 24.2
06:45 1028 30.36 858 25.34 -2.8 27 89 -4.4 24.1
06:50 1028 30.36 858 25.34 -2.8 26.9 89 -4.4 24
06:55 1028 30.36 858 25.34 -2.8 26.9 91 -4.1 24.6
07:00 1028 30.36 858 25.34 -2.1 28.2 88 -3.9 24.9
07:05 1028 30.36 858 25.34 -2.1 28.2 87 -4 24.7
07:10 1028 30.36 858 25.34 -2.5 27.6 87 -4.3 24.2
07:15 1028 30.36 858 25.34 -2.5 27.6 86 -4.4 24
07:20 1028 30.36 858 25.34 -2.5 27.6 86 -4.5 24
07:25 1028 30.36 858 25.34 -2.5 27.4 86 -4.5 23.8
07:30 1028 30.36 858 25.34 -2.7 27.2 86 -4.6 23.7
07:35 1028 30.36 858 25.34 -2.8 26.9 87 -4.8 23.4
07:40 1028 30.36 858 25.34 -3 26.7 87 -4.9 23.2
07:45 1028 30.36 858 25.34 -3.1 26.5 88 -4.8 23.4
07:50 1028 30.36 858 25.34 -2.9 26.8 87 -4.8 23.4
07:55 1028 30.36 858 25.34 -2.7 27.1 86 -4.7 23.5
08:00 1028 30.36 858 25.34 -2.8 27 86 -4.7 23.5
08:05 1028 30.36 858 25.34 -2.9 26.7 87 -4.8 23.4
08:10 1028 30.36 858 25.34 -2.4 27.7 85 -4.5 23.9
08:15 1028 30.36 858 25.34 -2 28.4 84 -4.4 24.1
08:20 1028 30.36 858 25.34 -1.3 29.7 82 -4.1 24.7
08:25 1028 30.36 858 25.34 -0.8 30.6 80 -3.8 25.1
08:30 1029 30.39 858 25.34 -0.6 30.8 79 -3.9 25
08:35 1029 30.39 858 25.34 -0.3 31.4 78 -3.8 25.2
08:40 1029 30.39 858 25.34 -0.3 31.5 76 -3.9 24.9
08:45 1029 30.39 858 25.34 -0.4 31.3 76 -4.2 24.4
08:50 1029 30.39 858 25.34 -0.4 31.2 75 -4.4 24.1
08:55 1029 30.39 858 25.34 -0.8 30.6 76 -4.6 23.8
09:00 1029 30.39 858 25.34 -1.1 30.1 76 -4.7 23.5
09:05 1029 30.39 858 25.34 -1.1 30 76 -4.8 23.3
09:10 1029 30.39 858 25.34 -1.3 29.7 77 -4.9 23.2
09:15 1029 30.39 858 25.34 -1.2 29.8 77 -4.8 23.4
09:20 1029 30.39 858 25.34 -0.8 30.6 74 -4.8 23.3
09:25 1029 30.39 858 25.34 -0 31.9 72 -4.5 23.9
09:30 1029 30.39 858 25.34 0.5 32.9 70 -4.4 24.1
09:35 1029 30.39 858 25.34 0.6 33.1 71 -4 24.9
09:40 1029 30.39 858 25.34 0.9 33.7 69 -4 24.7
09:45 1029 30.39 858 25.34 1.1 34.1 69 -3.9 24.9
09:50 1029 30.39 858 25.34 0.7 33.2 72 -3.8 25.2
09:55 1029 30.39 858 25.34 0.8 33.4 70 -4.1 24.6
10:00 1029 30.39 858 25.34 1.1 33.9 70 -3.8 25.1
10:05 1029 30.39 858 25.34 1.2 34.1 70 -3.7 25.4
10:10 1029 30.39 858 25.34 2.2 36 65 -3.6 25.5
10:15 1029 30.39 858 25.34 3.2 37.7 64 -3 26.6
10:20 1029 30.39 858 25.34 4 39.2 60 -3.1 26.4
10:25 1029 30.39 858 25.34 4.4 40 59 -2.9 26.8
10:30 1029 30.39 858 25.34 4.6 40.3 58 -2.9 26.8
10:35 1029 30.39 858 25.34 5.2 41.4 56 -2.9 26.8
10:40 1029 30.39 858 25.34 5.6 42.1 55 -2.8 27
10:45 1029 30.39 858 25.34 5.6 42.1 54 -2.9 26.7
10:50 1029 30.39 858 25.34 5.8 42.5 55 -2.6 27.4
10:55 1029 30.39 858 25.34 5.6 42.1 56 -2.5 27.5
11:00 1029 30.39 858 25.34 5.1 41.2 59 -2.2 28.1
11:05 1029 30.39 858 25.34 4.9 40.8 58 -2.8 27
11:10 1029 30.39 858 25.34 5.3 41.5 57 -2.6 27.3
11:15 1028 30.36 858 25.34 5.2 41.4 58 -2.5 27.5
11:20 1028 30.36 858 25.34 4.9 40.8 59 -2.5 27.6
11:25 1028 30.36 858 25.34 4.9 40.9 58 -2.6 27.4
11:30 1028 30.36 858 25.34 5 40.9 58 -2.6 27.4
11:35 1028 30.36 857 25.31 4.7 40.4 60 -2.5 27.5
11:40 1028 30.36 857 25.31 5 41.1 57 -2.8 27
11:45 1028 30.36 857 25.31 4.7 40.5 58 -2.8 27
11:50 1028 30.36 857 25.31 4.5 40 58 -3.1 26.5
11:55 1028 30.36 857 25.31 4.9 40.8 56 -3.2 26.3
12:00 1028 30.36 857 25.31 5.3 41.6 56 -2.7 27.1
12:05 1028 30.36 857 25.31 5 41 57 -2.7 27.2
12:10 1028 30.36 857 25.31 5.1 41.2 57 -2.6 27.3
12:15 1028 30.36 857 25.31 5.6 42.1 54 -2.9 26.7
12:20 1028 30.36 857 25.31 6.1 42.9 53 -2.7 27.1
12:25 1027 30.33 857 25.31 6.5 43.7 53 -2.3 27.9
12:30 1027 30.33 857 25.31 7.1 44.8 50 -2.7 27.2
12:35 1027 30.33 857 25.31 7.5 45.4 51 -2 28.5
12:40 1027 30.33 857 25.31 7.6 45.6 50 -2.2 28
12:45 1027 30.33 857 25.31 7.5 45.5 51 -1.9 28.6
12:50 1027 30.33 856 25.28 6.3 43.4 54 -2.1 28.1
12:55 1027 30.33 856 25.28 6.7 44.1 53 -2.3 27.9
13:00 1027 30.33 856 25.28 6.9 44.4 53 -2.1 28.3
13:05 1027 30.33 856 25.28 6.7 44.1 54 -2 28.5
13:10 1027 30.33 856 25.28 6.4 43.6 55 -1.8 28.7
13:15 1027 30.33 856 25.28 6.5 43.7 55 -1.8 28.7
13:20 1027 30.33 856 25.28 6.2 43.2 56 -1.8 28.8
13:25 1027 30.33 856 25.28 6.1 42.9 57 -1.8 28.7
13:30 1027 30.33 856 25.28 5.8 42.4 58 -1.9 28.6
13:35 1027 30.33 856 25.28 5.4 41.7 59 -2.1 28.3
13:40 1027 30.33 856 25.28 5 40.9 61 -1.9 28.6
13:45 1027 30.33 856 25.28 5.1 41.2 59 -2.2 28
13:50 1027 30.33 856 25.28 5.5 41.8 57 -2.3 27.8
13:55 1027 30.33 856 25.28 5.5 41.8 58 -2.1 28.3
14:00 1027 30.33 856 25.28 5.4 41.7 58 -2.3 27.9
14:05 1026 30.3 856 25.28 5.6 42.1 56 -2.5 27.4
14:10 1026 30.3 856 25.28 6.3 43.4 55 -2.1 28.2
14:15 1026 30.3 856 25.28 6.3 43.3 55 -2.2 28.1
14:20 1026 30.3 856 25.28 6.8 44.2 52 -2.3 27.9
14:25 1026 30.3 856 25.28 7.1 44.7 52 -2 28.4
14:30 1026 30.3 855 25.25 6.9 44.4 53 -2.1 28.2
14:35 1026 30.3 855 25.25 6.9 44.5 51 -2.4 27.7
14:40 1026 30.3 855 25.25 7.7 45.8 49 -2.3 27.9
14:45 1026 30.3 855 25.25 7.6 45.7 50 -2.1 28.3
14:50 1026 30.3 855 25.25 6.8 44.3 51 -2.7 27.2
14:55 1026 30.3 855 25.25 6.9 44.3 51 -2.7 27.2
15:00 1026 30.3 855 25.25 7 44.6 49 -3.1 26.4
15:05 1026 30.3 855 25.25 6.9 44.4 50 -2.8 27
15:10 1026 30.3 855 25.25 6.9 44.4 51 -2.5 27.5
15:15 1026 30.3 855 25.25 6.4 43.5 54 -2.1 28.2
15:20 1026 30.3 855 25.25 6.2 43.1 56 -2 28.4
15:25 1026 30.3 855 25.25 5.8 42.4 58 -1.9 28.6
15:30 1026 30.3 855 25.25 5.4 41.7 59 -2 28.4
15:35 1026 30.3 855 25.25 5.1 41.2 60 -1.9 28.5
15:40 1026 30.3 855 25.25 5 41 60 -2.1 28.3
15:45 1026 30.3 855 25.25 4.7 40.5 61 -2.1 28.2
15:50 1026 30.3 855 25.25 4.4 39.9 62 -2.3 27.8
15:55 1026 30.3 855 25.25 4 39.2 62 -2.5 27.4
16:00 1026 30.3 855 25.25 3.8 38.9 63 -2.6 27.3
16:05 1026 30.3 855 25.25 3.7 38.7 63 -2.7 27.1
16:10 1026 30.3 855 25.25 4 39.2 62 -2.6 27.4
16:15 1026 30.3 855 25.25 4.1 39.3 63 -2.3 27.8
16:20 1026 30.3 855 25.25 3.7 38.7 64 -2.4 27.8
16:25 1026 30.3 855 25.25 3.7 38.7 64 -2.3 27.8
16:30 1026 30.3 855 25.25 3.8 38.8 65 -2.2 28.1
16:35 1026 30.3 855 25.25 3.7 38.6 67 -1.9 28.5
16:40 1026 30.3 855 25.25 3.4 38.2 67 -2 28.4
16:45 1026 30.3 855 25.25 3.3 37.9 68 -2.1 28.2
16:50 1026 30.3 855 25.25 2.9 37.2 69 -2.2 28.1
16:55 1026 30.3 855 25.25 2.6 36.7 68 -2.6 27.3
17:00 1025 30.27 855 25.25 2.1 35.8 71 -2.7 27.2
17:05 1025 30.27 855 25.25 2.1 35.7 71 -2.7 27.1
17:10 1025 30.27 855 25.25 1.5 34.7 73 -2.8 26.9
17:15 1025 30.27 855 25.25 1.4 34.5 73 -2.9 26.8
17:20 1025 30.27 855 25.25 1.6 34.8 73 -2.8 27
17:25 1025 30.27 855 25.25 1.6 34.9 73 -2.7 27.2
17:30 1025 30.27 855 25.25 0.9 33.6 77 -2.7 27.1
17:35 1025 30.27 854 25.22 1.3 34.3 77 -2.3 27.9
17:40 1025 30.27 855 25.25 1 33.8 79 -2.3 27.9
17:45 1025 30.27 855 25.25 1.3 34.3 76 -2.5 27.5
17:50 1025 30.27 855 25.25 1.7 35.1 76 -2.1 28.3
17:55 1025 30.27 855 25.25 2.6 36.6 71 -2.1 28.1
18:00 1025 30.27 855 25.25 2.7 36.9 70 -2.1 28.1
18:05 1025 30.27 854 25.22 2.2 36 75 -1.8 28.7
18:10 1025 30.27 854 25.22 1.2 34.1 79 -2 28.4
18:15 1025 30.27 854 25.22 1.7 35 74 -2.5 27.6
18:20 1025 30.27 854 25.22 2.6 36.7 69 -2.5 27.6
18:25 1025 30.27 854 25.22 3 37.5 68 -2.2 28
18:30 1025 30.27 854 25.22 2.8 37 69 -2.3 27.8
18:35 1025 30.27 854 25.22 2.9 37.1 67 -2.6 27.2
18:40 1025 30.27 854 25.22 2.6 36.7 68 -2.6 27.3
18:45 1025 30.27 854 25.22 2 35.7 69 -3 26.6
18:50 1025 30.27 854 25.22 1.5 34.7 72 -3 26.7
18:55 1025 30.27 854 25.22 1.2 34.2 74 -3 26.6
19:00 1025 30.27 854 25.22 1.4 34.4 72 -3.1 26.4
19:05 1025 30.27 854 25.22 1.7 35 71 -3.1 26.5
19:10 1025 30.27 854 25.22 1.8 35.3 70 -3.1 26.5
19:15 1025 30.27 854 25.22 2.6 36.7 66 -3 26.5
19:20 1025 30.27 854 25.22 2.8 37 66 -3 26.6
19:25 1025 30.27 854 25.22 2.4 36.3 67 -3.1 26.5
19:30 1025 30.27 854 25.22 2.2 36 67 -3.3 26
19:35 1025 30.27 854 25.22 2.1 35.7 68 -3.3 26.1
19:40 1025 30.27 854 25.22 2.2 35.9 67 -3.3 26.1
19:45 1025 30.27 854 25.22 2.1 35.8 67 -3.4 25.9
19:50 1025 30.27 854 25.22 2.5 36.5 65 -3.5 25.7
19:55 1025 30.27 854 25.22 3 37.4 62 -3.5 25.6
20:00 1025 30.27 854 25.22 2.8 37.1 64 -3.4 25.9
20:05 1025 30.27 854 25.22 2.8 37 63 -3.5 25.7
20:10 1025 30.27 854 25.22 2.6 36.7 65 -3.3 26
20:15 1025 30.27 854 25.22 1.9 35.5 68 -3.4 25.8
20:20 1025 30.27 854 25.22 1.4 34.5 68 -4 24.9
20:25 1025 30.27 854 25.22 1.5 34.6 69 -3.5 25.6
20:30 1025 30.27 854 25.22 2 35.5 66 -3.7 25.4
20:35 1025 30.27 854 25.22 2 35.7 66 -3.7 25.3
20:40 1025 30.27 854 25.22 2.4 36.4 65 -3.5 25.6
20:45 1025 30.27 854 25.22 2.6 36.7 63 -3.7 25.3
20:50 1025 30.27 854 25.22 2.2 36 66 -3.4 25.8
20:55 1025 30.27 854 25.22 1.6 34.9 67 -3.9 24.9
21:00 1025 30.27 854 25.22 1.4 34.5 67 -4 24.9
21:05 1025 30.27 854 25.22 1.7 35 66 -4 24.8
21:10 1025 30.27 854 25.22 1.7 35 67 -3.9 25
21:15 1025 30.27 854 25.22 1.8 35.2 65 -4 24.8
21:20 1025 30.27 854 25.22 1.4 34.6 68 -3.8 25.2
21:25 1025 30.27 854 25.22 1.3 34.4 67 -4.2 24.5
21:30 1025 30.27 854 25.22 1.3 34.4 67 -4.1 24.6
21:35 1025 30.27 854 25.22 1.1 34 68 -4.1 24.5
21:40 1025 30.27 854 25.22 1.1 33.9 68 -4.2 24.5
21:45 1025 30.27 854 25.22 1.1 34 68 -4.1 24.7
21:50 1025 30.27 854 25.22 0.3 32.6 70 -4.5 24
21:55 1025 30.27 854 25.22 1.1 33.9 67 -4.5 24
22:00 1025 30.27 854 25.22 0.9 33.6 66 -4.7 23.6
22:05 1025 30.27 854 25.22 1.2 34.1 66 -4.6 23.8
22:10 1025 30.27 854 25.22 0.5 32.9 69 -4.6 23.8
22:15 1025 30.27 854 25.22 0.6 33.1 67 -4.8 23.3
22:20 1025 30.27 854 25.22 0.6 33.1 67 -4.8 23.4
22:25 1025 30.27 854 25.22 0.8 33.4 66 -4.9 23.2
22:30 1025 30.27 854 25.22 1.1 33.9 65 -4.8 23.3
22:35 1025 30.27 854 25.22 1 33.8 65 -4.9 23.2
22:40 1025 30.27 854 25.22 1.2 34.1 64 -4.8 23.3
22:45 1025 30.27 854 25.22 1.4 34.6 62 -5.1 22.9
22:50 1025 30.27 854 25.22 1.3 34.4 62 -5.1 22.9
22:55 1025 30.27 854 25.22 1.5 34.8 61 -5.2 22.7
23:00 1025 30.27 854 25.22 1.8 35.3 60 -5.1 22.7
23:05 1025 30.27 854 25.22 2.1 35.8 59 -5 23
23:10 1025 30.27 854 25.22 2.3 36.1 59 -5 23
23:15 1025 30.27 854 25.22 2.4 36.4 57 -5.2 22.6
23:20 1025 30.27 854 25.22 2.4 36.4 58 -5 23
23:25 1025 30.27 854 25.22 1.9 35.4 60 -5.1 22.8
23:30 1025 30.27 854 25.22 2.1 35.7 59 -5.2 22.7
23:35 1025 30.27 854 25.22 2.3 36.1 57 -5.3 22.4
23:40 1025 30.27 854 25.22 2.1 35.8 58 -5.3 22.5
23:45 1025 30.27 854 25.22 1.9 35.4 59 -5.4 22.3
23:50 1024 30.24 854 25.22 2.3 36.1 55 -5.8 21.6
23:55 1024 30.24 854 25.22 2 35.6 57 -5.5 22
24:00 1024 30.24 854 25.22 1.1 33.9 61 -5.6 21.9